sensor_id;sensor_type;location;lat;lon;timestamp;pressure;altitude;pressure_sealevel;temperature;humidity
58967;BME280;44744;51.894;5.080;2022-08-21T00:00:46;101805.46;;;18.30;60.11
58967;BME280;44744;51.894;5.080;2022-08-21T00:01:47;101805.88;;;18.30;60.11
58967;BME280;44744;51.894;5.080;2022-08-21T00:02:51;101803.63;;;18.29;60.08
58967;BME280;44744;51.894;5.080;2022-08-21T00:03:52;101800.36;;;18.29;60.00
58967;BME280;44744;51.894;5.080;2022-08-21T00:04:53;101798.77;;;18.29;60.08
58967;BME280;44744;51.894;5.080;2022-08-21T00:05:53;101799.88;;;18.29;59.96
58967;BME280;44744;51.894;5.080;2022-08-21T00:06:53;101799.07;;;18.27;59.97
58967;BME280;44744;51.894;5.080;2022-08-21T00:07:55;101797.98;;;18.25;59.99
58967;BME280;44744;51.894;5.080;2022-08-21T00:08:55;101799.39;;;18.25;59.91
58967;BME280;44744;51.894;5.080;2022-08-21T00:09:56;101799.02;;;18.25;59.79
58967;BME280;44744;51.894;5.080;2022-08-21T00:10:56;101801.27;;;18.24;59.94
58967;BME280;44744;51.894;5.080;2022-08-21T00:11:57;101803.13;;;18.23;59.92
58967;BME280;44744;51.894;5.080;2022-08-21T00:12:57;101802.11;;;18.22;59.97
58967;BME280;44744;51.894;5.080;2022-08-21T00:13:58;101803.63;;;18.21;59.97
58967;BME280;44744;51.894;5.080;2022-08-21T00:14:59;101805.66;;;18.20;59.97
58967;BME280;44744;51.894;5.080;2022-08-21T00:15:59;101803.70;;;18.20;59.97
58967;BME280;44744;51.894;5.080;2022-08-21T00:17:00;101803.48;;;18.20;59.91
58967;BME280;44744;51.894;5.080;2022-08-21T00:18:01;101803.48;;;18.20;59.91
58967;BME280;44744;51.894;5.080;2022-08-21T00:19:02;101804.73;;;18.21;59.81
58967;BME280;44744;51.894;5.080;2022-08-21T00:20:07;101804.96;;;18.20;59.98
58967;BME280;44744;51.894;5.080;2022-08-21T00:21:08;101802.23;;;18.18;59.92
58967;BME280;44744;51.894;5.080;2022-08-21T00:22:08;101801.45;;;18.17;59.89
58967;BME280;44744;51.894;5.080;2022-08-21T00:23:09;101803.02;;;18.15;59.99
58967;BME280;44744;51.894;5.080;2022-08-21T00:24:10;101802.02;;;18.13;59.97
58967;BME280;44744;51.894;5.080;2022-08-21T00:25:12;101801.57;;;18.13;59.92
58967;BME280;44744;51.894;5.080;2022-08-21T00:26:12;101800.73;;;18.12;59.94
58967;BME280;44744;51.894;5.080;2022-08-21T00:27:13;101794.81;;;18.09;59.92
58967;BME280;44744;51.894;5.080;2022-08-21T00:28:14;101793.93;;;18.09;60.03
58967;BME280;44744;51.894;5.080;2022-08-21T00:29:15;101792.17;;;18.08;60.14
58967;BME280;44744;51.894;5.080;2022-08-21T00:30:18;101792.21;;;18.05;60.13
58967;BME280;44744;51.894;5.080;2022-08-21T00:31:19;101791.00;;;18.05;60.27
58967;BME280;44744;51.894;5.080;2022-08-21T00:32:21;101791.17;;;18.05;60.24
58967;BME280;44744;51.894;5.080;2022-08-21T00:33:22;101789.65;;;18.04;60.23
58967;BME280;44744;51.894;5.080;2022-08-21T00:34:22;101788.41;;;18.04;60.25
58967;BME280;44744;51.894;5.080;2022-08-21T00:35:30;101789.06;;;18.02;60.16
58967;BME280;44744;51.894;5.080;2022-08-21T00:36:34;101787.53;;;18.01;60.22
58967;BME280;44744;51.894;5.080;2022-08-21T00:37:35;101786.98;;;17.99;60.31
58967;BME280;44744;51.894;5.080;2022-08-21T00:38:35;101787.38;;;17.98;60.31
58967;BME280;44744;51.894;5.080;2022-08-21T00:39:36;101784.61;;;17.97;60.32
58967;BME280;44744;51.894;5.080;2022-08-21T00:40:47;101787.85;;;17.96;60.26
58967;BME280;44744;51.894;5.080;2022-08-21T00:41:48;101788.24;;;17.96;60.41
58967;BME280;44744;51.894;5.080;2022-08-21T00:42:49;101790.09;;;17.95;60.38
58967;BME280;44744;51.894;5.080;2022-08-21T00:43:49;101788.69;;;17.95;60.39
58967;BME280;44744;51.894;5.080;2022-08-21T00:44:50;101789.35;;;17.95;60.57
58967;BME280;44744;51.894;5.080;2022-08-21T00:45:51;101786.51;;;17.95;60.49
58967;BME280;44744;51.894;5.080;2022-08-21T00:46:51;101792.06;;;17.95;60.55
58967;BME280;44744;51.894;5.080;2022-08-21T00:47:52;101791.04;;;17.94;60.43
58967;BME280;44744;51.894;5.080;2022-08-21T00:48:52;101792.34;;;17.94;60.57
58967;BME280;44744;51.894;5.080;2022-08-21T00:49:53;101792.73;;;17.93;60.60
58967;BME280;44744;51.894;5.080;2022-08-21T00:51:20;101791.06;;;17.91;60.46
58967;BME280;44744;51.894;5.080;2022-08-21T00:52:25;101791.53;;;17.89;60.58
58967;BME280;44744;51.894;5.080;2022-08-21T00:53:27;101791.61;;;17.88;60.66
58967;BME280;44744;51.894;5.080;2022-08-21T00:54:31;101792.69;;;17.88;60.73
58967;BME280;44744;51.894;5.080;2022-08-21T00:55:32;101793.09;;;17.88;60.77
58967;BME280;44744;51.894;5.080;2022-08-21T00:56:33;101791.65;;;17.88;60.65
58967;BME280;44744;51.894;5.080;2022-08-21T00:57:39;101790.86;;;17.86;60.65
58967;BME280;44744;51.894;5.080;2022-08-21T00:58:41;101786.42;;;17.86;60.81
58967;BME280;44744;51.894;5.080;2022-08-21T00:59:46;101787.52;;;17.86;60.70
58967;BME280;44744;51.894;5.080;2022-08-21T01:00:51;101789.23;;;17.84;60.72
58967;BME280;44744;51.894;5.080;2022-08-21T01:01:52;101788.58;;;17.83;60.76
58967;BME280;44744;51.894;5.080;2022-08-21T01:02:53;101791.23;;;17.83;60.76
58967;BME280;44744;51.894;5.080;2022-08-21T01:03:53;101790.22;;;17.83;60.78
58967;BME280;44744;51.894;5.080;2022-08-21T01:04:54;101789.20;;;17.82;60.78
58967;BME280;44744;51.894;5.080;2022-08-21T01:05:54;101791.41;;;17.81;60.76
58967;BME280;44744;51.894;5.080;2022-08-21T01:06:54;101789.82;;;17.81;60.81
58967;BME280;44744;51.894;5.080;2022-08-21T01:07:55;101785.55;;;17.81;60.88
58967;BME280;44744;51.894;5.080;2022-08-21T01:08:55;101788.05;;;17.80;60.78
58967;BME280;44744;51.894;5.080;2022-08-21T01:09:56;101790.08;;;17.80;60.79
58967;BME280;44744;51.894;5.080;2022-08-21T01:10:57;101786.56;;;17.79;60.83
58967;BME280;44744;51.894;5.080;2022-08-21T01:11:58;101788.81;;;17.77;60.79
58967;BME280;44744;51.894;5.080;2022-08-21T01:12:59;101789.25;;;17.76;60.81
58967;BME280;44744;51.894;5.080;2022-08-21T01:14:00;101783.40;;;17.75;60.89
58967;BME280;44744;51.894;5.080;2022-08-21T01:15:03;101785.19;;;17.75;60.91
58967;BME280;44744;51.894;5.080;2022-08-21T01:16:08;101785.04;;;17.75;60.89
58967;BME280;44744;51.894;5.080;2022-08-21T01:17:11;101782.28;;;17.73;60.86
58967;BME280;44744;51.894;5.080;2022-08-21T01:18:12;101782.15;;;17.73;60.91
58967;BME280;44744;51.894;5.080;2022-08-21T01:19:14;101782.21;;;17.72;60.94
58967;BME280;44744;51.894;5.080;2022-08-21T01:20:16;101783.73;;;17.71;61.06
58967;BME280;44744;51.894;5.080;2022-08-21T01:21:21;101783.47;;;17.69;60.91
58967;BME280;44744;51.894;5.080;2022-08-21T01:22:22;101784.55;;;17.69;61.04
58967;BME280;44744;51.894;5.080;2022-08-21T01:24:39;101786.52;;;17.67;61.04
58967;BME280;44744;51.894;5.080;2022-08-21T01:25:39;101789.25;;;17.66;61.13
58967;BME280;44744;51.894;5.080;2022-08-21T01:26:40;101789.46;;;17.65;61.00
58967;BME280;44744;51.894;5.080;2022-08-21T01:27:41;101790.02;;;17.65;61.03
58967;BME280;44744;51.894;5.080;2022-08-21T01:28:47;101787.39;;;17.64;61.10
58967;BME280;44744;51.894;5.080;2022-08-21T01:29:54;101789.84;;;17.65;61.19
58967;BME280;44744;51.894;5.080;2022-08-21T01:30:57;101786.13;;;17.65;61.11
58967;BME280;44744;51.894;5.080;2022-08-21T01:31:59;101785.09;;;17.64;61.12
58967;BME280;44744;51.894;5.080;2022-08-21T01:33:03;101788.54;;;17.63;61.12
58967;BME280;44744;51.894;5.080;2022-08-21T01:34:04;101788.27;;;17.62;61.05
58967;BME280;44744;51.894;5.080;2022-08-21T01:35:06;101790.12;;;17.61;61.15
58967;BME280;44744;51.894;5.080;2022-08-21T01:36:06;101784.17;;;17.59;61.12
58967;BME280;44744;51.894;5.080;2022-08-21T01:37:10;101789.09;;;17.55;61.13
58967;BME280;44744;51.894;5.080;2022-08-21T01:38:11;101784.41;;;17.53;61.22
58967;BME280;44744;51.894;5.080;2022-08-21T01:39:11;101780.48;;;17.53;61.17
58967;BME280;44744;51.894;5.080;2022-08-21T01:40:14;101780.15;;;17.53;61.24
58967;BME280;44744;51.894;5.080;2022-08-21T01:41:16;101779.64;;;17.52;61.27
58967;BME280;44744;51.894;5.080;2022-08-21T01:42:16;101783.75;;;17.52;61.32
58967;BME280;44744;51.894;5.080;2022-08-21T01:43:16;101778.77;;;17.52;61.24
58967;BME280;44744;51.894;5.080;2022-08-21T01:44:23;101780.70;;;17.53;61.35
58967;BME280;44744;51.894;5.080;2022-08-21T01:45:23;101776.98;;;17.52;61.34
58967;BME280;44744;51.894;5.080;2022-08-21T01:46:24;101774.90;;;17.51;61.31
58967;BME280;44744;51.894;5.080;2022-08-21T01:47:24;101774.36;;;17.51;61.29
58967;BME280;44744;51.894;5.080;2022-08-21T01:48:25;101774.77;;;17.51;61.42
58967;BME280;44744;51.894;5.080;2022-08-21T01:49:25;101771.86;;;17.48;61.31
58967;BME280;44744;51.894;5.080;2022-08-21T01:50:28;101774.63;;;17.47;61.40
58967;BME280;44744;51.894;5.080;2022-08-21T01:51:29;101774.36;;;17.46;61.46
58967;BME280;44744;51.894;5.080;2022-08-21T01:52:29;101775.03;;;17.44;61.48
58967;BME280;44744;51.894;5.080;2022-08-21T01:53:30;101776.11;;;17.44;61.48
58967;BME280;44744;51.894;5.080;2022-08-21T01:54:31;101771.23;;;17.42;61.65
58967;BME280;44744;51.894;5.080;2022-08-21T01:55:31;101771.60;;;17.42;61.67
58967;BME280;44744;51.894;5.080;2022-08-21T01:56:39;101774.11;;;17.42;61.73
58967;BME280;44744;51.894;5.080;2022-08-21T01:57:40;101774.30;;;17.42;61.71
58967;BME280;44744;51.894;5.080;2022-08-21T01:58:42;101774.02;;;17.40;61.73
58967;BME280;44744;51.894;5.080;2022-08-21T01:59:43;101775.35;;;17.39;61.71
58967;BME280;44744;51.894;5.080;2022-08-21T02:00:43;101774.01;;;17.38;61.74
58967;BME280;44744;51.894;5.080;2022-08-21T02:01:44;101774.75;;;17.37;61.75
58967;BME280;44744;51.894;5.080;2022-08-21T02:02:44;101772.14;;;17.36;61.73
58967;BME280;44744;51.894;5.080;2022-08-21T02:03:45;101770.02;;;17.36;61.91
58967;BME280;44744;51.894;5.080;2022-08-21T02:04:45;101770.74;;;17.36;62.00
58967;BME280;44744;51.894;5.080;2022-08-21T02:05:45;101769.55;;;17.35;62.00
58967;BME280;44744;51.894;5.080;2022-08-21T02:06:46;101766.52;;;17.35;62.04
58967;BME280;44744;51.894;5.080;2022-08-21T02:07:51;101767.81;;;17.35;61.99
58967;BME280;44744;51.894;5.080;2022-08-21T02:08:52;101769.09;;;17.34;62.02
58967;BME280;44744;51.894;5.080;2022-08-21T02:09:53;101764.80;;;17.34;62.04
58967;BME280;44744;51.894;5.080;2022-08-21T02:10:53;101766.27;;;17.34;62.12
58967;BME280;44744;51.894;5.080;2022-08-21T02:11:55;101766.19;;;17.32;62.25
58967;BME280;44744;51.894;5.080;2022-08-21T02:12:58;101766.59;;;17.31;62.08
58967;BME280;44744;51.894;5.080;2022-08-21T02:13:59;101764.66;;;17.31;62.22
58967;BME280;44744;51.894;5.080;2022-08-21T02:14:59;101768.85;;;17.30;62.20
58967;BME280;44744;51.894;5.080;2022-08-21T02:15:59;101770.09;;;17.30;62.34
58967;BME280;44744;51.894;5.080;2022-08-21T02:17:00;101771.35;;;17.30;62.33
58967;BME280;44744;51.894;5.080;2022-08-21T02:18:05;101767.05;;;17.30;62.33
58967;BME280;44744;51.894;5.080;2022-08-21T02:19:06;101765.42;;;17.30;62.50
58967;BME280;44744;51.894;5.080;2022-08-21T02:20:08;101768.02;;;17.31;62.44
58967;BME280;44744;51.894;5.080;2022-08-21T02:21:08;101769.14;;;17.31;62.38
58967;BME280;44744;51.894;5.080;2022-08-21T02:22:10;101765.80;;;17.30;62.46
58967;BME280;44744;51.894;5.080;2022-08-21T02:23:11;101766.04;;;17.29;62.43
58967;BME280;44744;51.894;5.080;2022-08-21T02:24:12;101766.05;;;17.29;62.49
58967;BME280;44744;51.894;5.080;2022-08-21T02:25:12;101762.32;;;17.29;62.64
58967;BME280;44744;51.894;5.080;2022-08-21T02:26:19;101765.57;;;17.28;62.66
58967;BME280;44744;51.894;5.080;2022-08-21T02:27:19;101763.64;;;17.28;62.68
58967;BME280;44744;51.894;5.080;2022-08-21T02:28:19;101764.25;;;17.27;62.74
58967;BME280;44744;51.894;5.080;2022-08-21T02:29:26;101761.59;;;17.26;62.77
58967;BME280;44744;51.894;5.080;2022-08-21T02:30:30;101761.83;;;17.26;62.72
58967;BME280;44744;51.894;5.080;2022-08-21T02:31:32;101762.75;;;17.25;62.85
58967;BME280;44744;51.894;5.080;2022-08-21T02:32:32;101760.23;;;17.25;62.88
58967;BME280;44744;51.894;5.080;2022-08-21T02:33:33;101757.35;;;17.26;62.86
58967;BME280;44744;51.894;5.080;2022-08-21T02:34:33;101753.05;;;17.26;62.94
58967;BME280;44744;51.894;5.080;2022-08-21T02:35:34;101753.25;;;17.25;62.96
58967;BME280;44744;51.894;5.080;2022-08-21T02:36:34;101751.34;;;17.25;62.95
58967;BME280;44744;51.894;5.080;2022-08-21T02:37:43;101753.55;;;17.24;62.89
58967;BME280;44744;51.894;5.080;2022-08-21T02:38:44;101747.08;;;17.22;62.93
58967;BME280;44744;51.894;5.080;2022-08-21T02:39:44;101748.27;;;17.20;62.91
58967;BME280;44744;51.894;5.080;2022-08-21T02:40:47;101747.49;;;17.18;63.05
58967;BME280;44744;51.894;5.080;2022-08-21T02:41:48;101748.10;;;17.17;63.11
58967;BME280;44744;51.894;5.080;2022-08-21T02:42:48;101739.45;;;17.16;63.04
58967;BME280;44744;51.894;5.080;2022-08-21T02:43:49;101741.80;;;17.15;63.19
58967;BME280;44744;51.894;5.080;2022-08-21T02:44:49;101743.08;;;17.15;63.20
58967;BME280;44744;51.894;5.080;2022-08-21T02:45:50;101741.16;;;17.14;63.18
58967;BME280;44744;51.894;5.080;2022-08-21T02:46:51;101743.27;;;17.12;63.23
58967;BME280;44744;51.894;5.080;2022-08-21T02:47:55;101743.69;;;17.11;63.24
58967;BME280;44744;51.894;5.080;2022-08-21T02:48:55;101746.23;;;17.11;63.37
58967;BME280;44744;51.894;5.080;2022-08-21T02:49:56;101746.46;;;17.10;63.35
58967;BME280;44744;51.894;5.080;2022-08-21T02:50:59;101742.98;;;17.09;63.37
58967;BME280;44744;51.894;5.080;2022-08-21T02:52:00;101745.50;;;17.08;63.39
58967;BME280;44744;51.894;5.080;2022-08-21T02:53:03;101743.13;;;17.06;63.43
58967;BME280;44744;51.894;5.080;2022-08-21T02:54:03;101742.48;;;17.05;63.39
58967;BME280;44744;51.894;5.080;2022-08-21T02:55:04;101740.86;;;17.03;63.55
58967;BME280;44744;51.894;5.080;2022-08-21T02:56:07;101739.67;;;17.02;63.57
58967;BME280;44744;51.894;5.080;2022-08-21T02:57:08;101740.65;;;17.00;63.53
58967;BME280;44744;51.894;5.080;2022-08-21T02:58:08;101739.58;;;17.00;63.53
58967;BME280;44744;51.894;5.080;2022-08-21T02:59:09;101740.27;;;17.01;63.65
58967;BME280;44744;51.894;5.080;2022-08-21T03:00:09;101742.71;;;16.99;63.52
58967;BME280;44744;51.894;5.080;2022-08-21T03:01:10;101740.71;;;16.97;63.63
58967;BME280;44744;51.894;5.080;2022-08-21T03:02:10;101740.23;;;16.96;63.66
58967;BME280;44744;51.894;5.080;2022-08-21T03:03:11;101739.38;;;16.96;63.73
58967;BME280;44744;51.894;5.080;2022-08-21T03:04:11;101738.79;;;16.94;63.81
58967;BME280;44744;51.894;5.080;2022-08-21T03:05:12;101737.59;;;16.93;63.87
58967;BME280;44744;51.894;5.080;2022-08-21T03:06:15;101735.36;;;16.92;63.95
58967;BME280;44744;51.894;5.080;2022-08-21T03:07:15;101737.23;;;16.90;64.00
58967;BME280;44744;51.894;5.080;2022-08-21T03:08:17;101739.23;;;16.89;63.91
58967;BME280;44744;51.894;5.080;2022-08-21T03:09:18;101739.67;;;16.88;63.97
58967;BME280;44744;51.894;5.080;2022-08-21T03:10:20;101737.95;;;16.87;64.02
58967;BME280;44744;51.894;5.080;2022-08-21T03:11:20;101735.72;;;16.86;63.95
58967;BME280;44744;51.894;5.080;2022-08-21T03:12:21;101737.76;;;16.84;64.11
58967;BME280;44744;51.894;5.080;2022-08-21T03:13:21;101735.33;;;16.83;64.01
58967;BME280;44744;51.894;5.080;2022-08-21T03:14:22;101730.73;;;16.82;64.09
58967;BME280;44744;51.894;5.080;2022-08-21T03:15:23;101727.95;;;16.82;64.12
58967;BME280;44744;51.894;5.080;2022-08-21T03:16:23;101727.86;;;16.80;64.19
58967;BME280;44744;51.894;5.080;2022-08-21T03:17:24;101729.02;;;16.79;64.30
58967;BME280;44744;51.894;5.080;2022-08-21T03:18:25;101728.02;;;16.78;64.22
58967;BME280;44744;51.894;5.080;2022-08-21T03:19:25;101722.64;;;16.76;64.27
58967;BME280;44744;51.894;5.080;2022-08-21T03:20:27;101722.52;;;16.75;64.29
58967;BME280;44744;51.894;5.080;2022-08-21T03:21:27;101721.59;;;16.72;64.29
58967;BME280;44744;51.894;5.080;2022-08-21T03:22:28;101724.53;;;16.71;64.33
58967;BME280;44744;51.894;5.080;2022-08-21T03:23:28;101724.21;;;16.71;64.42
58967;BME280;44744;51.894;5.080;2022-08-21T03:24:28;101718.55;;;16.70;64.34
58967;BME280;44744;51.894;5.080;2022-08-21T03:25:29;101722.86;;;16.69;64.50
58967;BME280;44744;51.894;5.080;2022-08-21T03:26:30;101721.30;;;16.69;64.46
58967;BME280;44744;51.894;5.080;2022-08-21T03:27:31;101719.55;;;16.68;64.42
58967;BME280;44744;51.894;5.080;2022-08-21T03:28:31;101724.14;;;16.66;64.57
58967;BME280;44744;51.894;5.080;2022-08-21T03:29:32;101719.81;;;16.64;64.56
58967;BME280;44744;51.894;5.080;2022-08-21T03:30:32;101720.63;;;16.63;64.53
58967;BME280;44744;51.894;5.080;2022-08-21T03:31:32;101720.15;;;16.62;64.60
58967;BME280;44744;51.894;5.080;2022-08-21T03:32:33;101722.32;;;16.62;64.71
58967;BME280;44744;51.894;5.080;2022-08-21T03:33:34;101721.61;;;16.61;64.69
58967;BME280;44744;51.894;5.080;2022-08-21T03:34:36;101720.45;;;16.60;64.83
58967;BME280;44744;51.894;5.080;2022-08-21T03:35:36;101720.84;;;16.60;64.78
58967;BME280;44744;51.894;5.080;2022-08-21T03:36:37;101718.77;;;16.59;64.78
58967;BME280;44744;51.894;5.080;2022-08-21T03:37:37;101717.55;;;16.58;64.83
58967;BME280;44744;51.894;5.080;2022-08-21T03:38:38;101714.37;;;16.58;64.86
58967;BME280;44744;51.894;5.080;2022-08-21T03:39:38;101715.66;;;16.57;64.88
58967;BME280;44744;51.894;5.080;2022-08-21T03:40:42;101717.63;;;16.57;64.90
58967;BME280;44744;51.894;5.080;2022-08-21T03:41:43;101717.24;;;16.58;64.94
58967;BME280;44744;51.894;5.080;2022-08-21T03:42:44;101717.30;;;16.57;64.93
58967;BME280;44744;51.894;5.080;2022-08-21T03:43:44;101717.75;;;16.55;64.80
58967;BME280;44744;51.894;5.080;2022-08-21T03:44:44;101714.55;;;16.52;64.94
58967;BME280;44744;51.894;5.080;2022-08-21T03:45:45;101715.69;;;16.51;64.87
58967;BME280;44744;51.894;5.080;2022-08-21T03:46:45;101712.76;;;16.50;64.91
58967;BME280;44744;51.894;5.080;2022-08-21T03:48:00;101711.59;;;16.49;64.97
58967;BME280;44744;51.894;5.080;2022-08-21T03:49:00;101713.80;;;16.47;64.92
58967;BME280;44744;51.894;5.080;2022-08-21T03:50:03;101711.92;;;16.46;65.07
58967;BME280;44744;51.894;5.080;2022-08-21T03:51:04;101712.44;;;16.46;65.13
58967;BME280;44744;51.894;5.080;2022-08-21T03:52:05;101712.55;;;16.47;65.13
58967;BME280;44744;51.894;5.080;2022-08-21T03:53:05;101714.56;;;16.47;65.16
58967;BME280;44744;51.894;5.080;2022-08-21T03:54:05;101714.05;;;16.46;65.18
58967;BME280;44744;51.894;5.080;2022-08-21T03:55:06;101713.94;;;16.45;65.21
58967;BME280;44744;51.894;5.080;2022-08-21T03:56:06;101715.02;;;16.45;65.21
58967;BME280;44744;51.894;5.080;2022-08-21T03:57:07;101712.92;;;16.45;65.21
58967;BME280;44744;51.894;5.080;2022-08-21T03:58:08;101710.34;;;16.43;65.28
58967;BME280;44744;51.894;5.080;2022-08-21T03:59:08;101708.55;;;16.43;65.25
58967;BME280;44744;51.894;5.080;2022-08-21T04:00:10;101707.91;;;16.42;65.31
58967;BME280;44744;51.894;5.080;2022-08-21T04:01:10;101707.23;;;16.42;65.39
58967;BME280;44744;51.894;5.080;2022-08-21T04:02:12;101710.38;;;16.40;65.36
58967;BME280;44744;51.894;5.080;2022-08-21T04:03:13;101705.25;;;16.39;65.36
58967;BME280;44744;51.894;5.080;2022-08-21T04:04:14;101706.02;;;16.37;65.36
58967;BME280;44744;51.894;5.080;2022-08-21T04:05:16;101709.48;;;16.37;65.38
58967;BME280;44744;51.894;5.080;2022-08-21T04:06:19;101708.43;;;16.36;65.46
58967;BME280;44744;51.894;5.080;2022-08-21T04:07:19;101711.52;;;16.36;65.53
58967;BME280;44744;51.894;5.080;2022-08-21T04:08:20;101709.23;;;16.35;65.52
58967;BME280;44744;51.894;5.080;2022-08-21T04:09:20;101711.92;;;16.35;65.52
58967;BME280;44744;51.894;5.080;2022-08-21T04:10:22;101711.25;;;16.34;65.53
58967;BME280;44744;51.894;5.080;2022-08-21T04:11:22;101714.15;;;16.34;65.61
58967;BME280;44744;51.894;5.080;2022-08-21T04:12:23;101715.13;;;16.32;65.53
58967;BME280;44744;51.894;5.080;2022-08-21T04:13:24;101714.27;;;16.32;65.63
58967;BME280;44744;51.894;5.080;2022-08-21T04:14:24;101716.27;;;16.31;65.63
58967;BME280;44744;51.894;5.080;2022-08-21T04:15:26;101716.02;;;16.30;65.63
58967;BME280;44744;51.894;5.080;2022-08-21T04:16:26;101715.58;;;16.28;65.69
58967;BME280;44744;51.894;5.080;2022-08-21T04:17:27;101720.95;;;16.28;65.70
58967;BME280;44744;51.894;5.080;2022-08-21T04:18:27;101720.81;;;16.27;65.70
58967;BME280;44744;51.894;5.080;2022-08-21T04:19:27;101720.83;;;16.27;65.75
58967;BME280;44744;51.894;5.080;2022-08-21T04:20:28;101722.15;;;16.26;65.80
58967;BME280;44744;51.894;5.080;2022-08-21T04:21:29;101720.23;;;16.25;65.76
58967;BME280;44744;51.894;5.080;2022-08-21T04:22:30;101722.49;;;16.23;65.78
58967;BME280;44744;51.894;5.080;2022-08-21T04:23:30;101727.65;;;16.21;65.77
58967;BME280;44744;51.894;5.080;2022-08-21T04:24:30;101727.94;;;16.19;65.80
58967;BME280;44744;51.894;5.080;2022-08-21T04:25:34;101726.55;;;16.19;65.93
58967;BME280;44744;51.894;5.080;2022-08-21T04:26:35;101728.75;;;16.18;65.88
58967;BME280;44744;51.894;5.080;2022-08-21T04:27:35;101730.97;;;16.17;65.88
58967;BME280;44744;51.894;5.080;2022-08-21T04:28:36;101729.98;;;16.15;65.95
58967;BME280;44744;51.894;5.080;2022-08-21T04:29:37;101728.66;;;16.14;65.90
58967;BME280;44744;51.894;5.080;2022-08-21T04:30:38;101729.10;;;16.12;65.99
58967;BME280;44744;51.894;5.080;2022-08-21T04:31:38;101729.55;;;16.11;66.01
58967;BME280;44744;51.894;5.080;2022-08-21T04:32:42;101731.79;;;16.10;66.06
58967;BME280;44744;51.894;5.080;2022-08-21T04:33:42;101730.42;;;16.09;66.08
58967;BME280;44744;51.894;5.080;2022-08-21T04:34:43;101733.20;;;16.07;66.17
58967;BME280;44744;51.894;5.080;2022-08-21T04:35:43;101729.37;;;16.06;66.18
58967;BME280;44744;51.894;5.080;2022-08-21T04:36:44;101732.63;;;16.05;66.16
58967;BME280;44744;51.894;5.080;2022-08-21T04:37:45;101731.21;;;16.04;66.26
58967;BME280;44744;51.894;5.080;2022-08-21T04:38:45;101732.91;;;16.03;66.24
58967;BME280;44744;51.894;5.080;2022-08-21T04:39:45;101734.63;;;16.01;66.39
58967;BME280;44744;51.894;5.080;2022-08-21T04:40:46;101733.10;;;16.00;66.42
58967;BME280;44744;51.894;5.080;2022-08-21T04:41:47;101735.09;;;15.99;66.43
58967;BME280;44744;51.894;5.080;2022-08-21T04:42:50;101734.44;;;15.98;66.52
58967;BME280;44744;51.894;5.080;2022-08-21T04:43:51;101733.44;;;15.97;66.55
58967;BME280;44744;51.894;5.080;2022-08-21T04:44:51;101734.87;;;15.97;66.57
58967;BME280;44744;51.894;5.080;2022-08-21T04:45:52;101735.38;;;15.98;66.54
58967;BME280;44744;51.894;5.080;2022-08-21T04:46:52;101733.72;;;15.99;66.55
58967;BME280;44744;51.894;5.080;2022-08-21T04:47:55;101734.67;;;15.98;66.49
58967;BME280;44744;51.894;5.080;2022-08-21T04:48:56;101733.61;;;15.98;66.51
58967;BME280;44744;51.894;5.080;2022-08-21T04:49:56;101735.38;;;15.98;66.57
58967;BME280;44744;51.894;5.080;2022-08-21T04:51:05;101730.40;;;15.98;66.60
58967;BME280;44744;51.894;5.080;2022-08-21T04:52:08;101732.19;;;15.98;66.66
58967;BME280;44744;51.894;5.080;2022-08-21T04:53:15;101731.33;;;15.97;66.62
58967;BME280;44744;51.894;5.080;2022-08-21T04:54:19;101731.33;;;15.97;66.62
58967;BME280;44744;51.894;5.080;2022-08-21T04:55:21;101731.54;;;15.97;66.59
58967;BME280;44744;51.894;5.080;2022-08-21T04:56:26;101730.52;;;15.95;66.66
58967;BME280;44744;51.894;5.080;2022-08-21T04:58:06;101730.59;;;15.94;66.64
58967;BME280;44744;51.894;5.080;2022-08-21T05:01:25;101733.34;;;15.91;66.75
58967;BME280;44744;51.894;5.080;2022-08-21T05:04:42;101736.52;;;15.88;66.83
58967;BME280;44744;51.894;5.080;2022-08-21T05:05:48;101740.02;;;15.86;66.69
58967;BME280;44744;51.894;5.080;2022-08-21T05:06:49;101745.73;;;15.86;66.83
58967;BME280;44744;51.894;5.080;2022-08-21T05:07:51;101743.91;;;15.87;66.84
58967;BME280;44744;51.894;5.080;2022-08-21T05:13:21;101747.30;;;15.87;67.00
58967;BME280;44744;51.894;5.080;2022-08-21T05:15:14;101749.99;;;15.86;67.04
58967;BME280;44744;51.894;5.080;2022-08-21T05:16:15;101750.39;;;15.86;67.03
58967;BME280;44744;51.894;5.080;2022-08-21T05:17:15;101751.61;;;15.87;67.10
58967;BME280;44744;51.894;5.080;2022-08-21T05:18:15;101750.63;;;15.88;67.16
58967;BME280;44744;51.894;5.080;2022-08-21T05:19:19;101754.44;;;15.90;67.18
58967;BME280;44744;51.894;5.080;2022-08-21T05:20:19;101752.10;;;15.90;67.14
58967;BME280;44744;51.894;5.080;2022-08-21T05:21:19;101758.25;;;15.92;67.18
58967;BME280;44744;51.894;5.080;2022-08-21T05:22:22;101755.89;;;15.92;67.20
58967;BME280;44744;51.894;5.080;2022-08-21T05:23:22;101754.23;;;15.93;67.33
58967;BME280;44744;51.894;5.080;2022-08-21T05:24:22;101757.17;;;15.94;67.25
58967;BME280;44744;51.894;5.080;2022-08-21T05:25:23;101756.79;;;15.95;67.23
58967;BME280;44744;51.894;5.080;2022-08-21T05:26:23;101756.36;;;15.96;67.33
58967;BME280;44744;51.894;5.080;2022-08-21T05:27:24;101759.19;;;15.96;67.35
58967;BME280;44744;51.894;5.080;2022-08-21T05:28:24;101758.64;;;15.97;67.32
58967;BME280;44744;51.894;5.080;2022-08-21T05:29:25;101760.02;;;15.97;67.41
58967;BME280;44744;51.894;5.080;2022-08-21T05:30:25;101761.44;;;15.98;67.32
58967;BME280;44744;51.894;5.080;2022-08-21T05:31:26;101760.17;;;15.98;67.41
58967;BME280;44744;51.894;5.080;2022-08-21T05:32:26;101761.40;;;15.98;67.49
58967;BME280;44744;51.894;5.080;2022-08-21T05:33:26;101761.67;;;15.99;67.49